Time;durP1;ratioP1;P1;durP2;ratioP2;P2;SDS_P1;SDS_P2;PMS_P1;PMS_P2;Temp;Humidity;BMP_temperature;BMP_pressure;BME280_temperature;BME280_humidity;BME280_pressure;Samples;Min_cycle;Max_cycle;Signal;HPM_P1;HPM_P2
2023/11/13 00:00:52;;;;;;;28.20;18.60;;;4.10;99.90;;;;;;4973844;28;20421;-82
2023/11/13 00:03:18;;;;;;;29.10;19.30;;;4.10;99.90;;;;;;4921772;28;20113;-82
2023/11/13 00:05:43;;;;;;;33.63;21.13;;;4.10;99.90;;;;;;4969776;28;20068;-82
2023/11/13 00:08:09;;;;;;;36.38;22.15;;;4.10;99.90;;;;;;4930476;28;20363;-81
2023/11/13 00:10:35;;;;;;;36.05;23.25;;;4.10;99.90;;;;;;4915427;28;20824;-81
2023/11/13 00:13:02;;;;;;;27.73;19.08;;;4.00;99.90;;;;;;4953736;28;20048;-81
2023/11/13 00:15:27;;;;;;;28.52;18.35;;;4.00;99.90;;;;;;4937929;28;20057;-81
2023/11/13 00:17:53;;;;;;;26.35;17.05;;;4.00;99.90;;;;;;4942785;28;20557;-81
2023/11/13 00:20:19;;;;;;;25.08;16.13;;;4.00;99.90;;;;;;4954922;28;20538;-82
2023/11/13 00:22:45;;;;;;;24.30;15.02;;;4.00;99.90;;;;;;4943818;28;20029;-81
2023/11/13 00:25:12;;;;;;;20.35;14.80;;;4.00;99.90;;;;;;4978235;28;20092;-81
2023/11/13 00:27:37;;;;;;;26.23;17.58;;;3.90;99.90;;;;;;4941057;28;20030;-80
2023/11/13 00:30:06;;;;;;;25.98;16.05;;;3.90;99.90;;;;;;4935948;28;21113;-81
2023/11/13 00:32:32;;;;;;;23.60;14.68;;;3.90;99.90;;;;;;4979005;28;20049;-81
2023/11/13 00:34:57;;;;;;;20.73;14.95;;;3.90;99.90;;;;;;4932416;28;20106;-81
2023/11/13 00:37:23;;;;;;;24.42;15.23;;;3.90;99.90;;;;;;4947069;28;20076;-81
2023/11/13 00:39:48;;;;;;;20.88;14.63;;;3.80;99.90;;;;;;4967497;28;20073;-81
2023/11/13 00:42:16;;;;;;;22.08;14.43;;;3.80;99.90;;;;;;4945133;28;20018;-82
2023/11/13 00:44:41;;;;;;;22.08;14.23;;;3.80;99.90;;;;;;4952106;28;20049;-80
2023/11/13 00:47:07;;;;;;;21.30;15.15;;;3.80;99.90;;;;;;4931457;28;20513;-82
2023/11/13 00:49:33;;;;;;;20.73;13.50;;;3.80;99.90;;;;;;4930501;28;21086;-81
2023/11/13 00:51:59;;;;;;;21.83;14.68;;;3.80;99.90;;;;;;4949547;28;20021;-83
2023/11/13 00:54:24;;;;;;;23.20;14.48;;;3.70;99.90;;;;;;4961114;28;20010;-81
2023/11/13 00:56:50;;;;;;;24.55;15.98;;;3.70;99.90;;;;;;4972451;28;20458;-82
2023/11/13 00:59:15;;;;;;;22.65;13.82;;;3.70;99.90;;;;;;4977447;28;20037;-82
2023/11/13 01:01:42;;;;;;;25.17;14.35;;;3.70;99.90;;;;;;4940736;28;20034;-82
2023/11/13 01:04:08;;;;;;;22.55;15.02;;;3.70;99.90;;;;;;4975447;28;20013;-80
2023/11/13 01:06:34;;;;;;;20.23;13.88;;;3.70;99.90;;;;;;4951858;28;20025;-81
2023/11/13 01:08:59;;;;;;;23.38;15.55;;;3.70;99.90;;;;;;4972547;28;20034;-81
2023/11/13 01:11:25;;;;;;;19.40;12.75;;;3.70;99.90;;;;;;4981414;28;20022;-82
2023/11/13 01:13:50;;;;;;;22.50;15.23;;;3.60;99.90;;;;;;4933205;28;20109;-83
2023/11/13 01:16:19;;;;;;;21.27;14.13;;;3.60;99.90;;;;;;4963361;28;20057;-80
2023/11/13 01:18:53;;;;;;;19.13;13.70;;;3.60;99.90;;;;;;4968270;28;20026;-82
2023/11/13 01:21:21;;;;;;;21.67;14.20;;;3.60;99.90;;;;;;4972090;28;20108;-82
2023/11/13 01:23:49;;;;;;;25.08;15.55;;;3.60;99.90;;;;;;4943244;28;20136;-81
2023/11/13 01:26:15;;;;;;;23.20;15.20;;;3.50;99.90;;;;;;4975271;28;20030;-82
2023/11/13 01:28:40;;;;;;;24.95;15.00;;;3.50;99.90;;;;;;4939263;28;20120;-83
2023/11/13 01:31:07;;;;;;;22.50;14.15;;;3.50;99.90;;;;;;4971536;28;20038;-82
2023/11/13 01:33:32;;;;;;;20.48;13.00;;;3.40;99.90;;;;;;4968547;28;20101;-83
2023/11/13 01:35:58;;;;;;;20.25;14.32;;;3.40;99.90;;;;;;4943192;28;20038;-82
2023/11/13 01:38:23;;;;;;;27.67;15.73;;;3.40;99.90;;;;;;4993698;28;20478;-82
2023/11/13 01:40:51;;;;;;;22.48;13.60;;;3.40;99.90;;;;;;4977446;28;20034;-82
2023/11/13 01:43:20;;;;;;;17.52;13.52;;;3.40;99.90;;;;;;4990117;28;20032;-82
2023/11/13 01:45:49;;;;;;;22.38;14.10;;;3.40;99.90;;;;;;4972747;28;20029;-82
2023/11/13 01:48:14;;;;;;;20.10;13.38;;;3.40;99.90;;;;;;4966284;28;20713;-81
2023/11/13 01:50:41;;;;;;;21.55;13.82;;;3.40;99.90;;;;;;4972756;28;20093;-83
2023/11/13 01:53:07;;;;;;;18.08;13.30;;;3.30;99.90;;;;;;4956797;28;20026;-82
2023/11/13 01:55:32;;;;;;;18.30;12.10;;;3.30;99.90;;;;;;4974327;28;20163;-81
2023/11/13 01:57:58;;;;;;;18.77;13.25;;;3.30;99.90;;;;;;4974880;28;20030;-84
2023/11/13 02:00:25;;;;;;;23.60;14.77;;;3.30;99.90;;;;;;4974407;28;20242;-84
2023/11/13 02:02:52;;;;;;;22.67;14.20;;;3.30;99.90;;;;;;4944900;28;20099;-82
2023/11/13 02:05:17;;;;;;;22.00;14.50;;;3.30;99.90;;;;;;4974951;28;20468;-82
2023/11/13 02:07:43;;;;;;;18.90;13.57;;;3.20;99.90;;;;;;4969220;28;20050;-83
2023/11/13 02:10:09;;;;;;;23.00;14.70;;;3.30;99.90;;;;;;5006069;28;20033;-84
2023/11/13 02:12:35;;;;;;;23.55;15.25;;;3.20;99.90;;;;;;4955321;28;20026;-82
2023/11/13 02:15:02;;;;;;;22.00;13.93;;;3.20;99.90;;;;;;4947533;28;21575;-82
2023/11/13 02:17:28;;;;;;;22.90;13.85;;;3.20;99.90;;;;;;4992996;28;20025;-83
2023/11/13 02:19:53;;;;;;;21.88;14.65;;;3.20;99.90;;;;;;4953165;28;20029;-84
2023/11/13 02:22:19;;;;;;;19.30;13.10;;;3.10;99.90;;;;;;4941678;28;20041;-81
2023/11/13 02:24:44;;;;;;;19.52;12.95;;;3.10;99.90;;;;;;4982087;28;20038;-82
2023/11/13 02:27:11;;;;;;;23.63;15.60;;;3.10;99.90;;;;;;4961192;28;20045;-84
2023/11/13 02:29:37;;;;;;;21.40;13.98;;;3.10;99.90;;;;;;4963135;28;20025;-82
2023/11/13 02:32:03;;;;;;;22.27;13.75;;;3.00;99.90;;;;;;4989438;28;20021;-82
2023/11/13 02:34:29;;;;;;;22.20;13.70;;;3.10;99.90;;;;;;4950254;28;20026;-83
2023/11/13 02:36:54;;;;;;;23.67;14.18;;;3.00;99.90;;;;;;4958426;28;20014;-84
2023/11/13 02:39:21;;;;;;;19.98;13.40;;;3.00;99.90;;;;;;4945247;28;20079;-84
2023/11/13 02:41:48;;;;;;;20.02;13.88;;;3.00;99.90;;;;;;4989648;28;20022;-82
2023/11/13 02:44:14;;;;;;;19.98;12.95;;;3.00;99.90;;;;;;4992819;28;20118;-82
2023/11/13 02:46:40;;;;;;;18.75;13.32;;;3.00;99.90;;;;;;4996327;28;20033;-83
2023/11/13 02:49:06;;;;;;;22.10;13.98;;;3.00;99.90;;;;;;4992910;28;20053;-82
2023/11/13 02:51:32;;;;;;;21.48;13.85;;;2.90;99.90;;;;;;4982032;28;20410;-83
2023/11/13 02:53:58;;;;;;;19.33;12.50;;;2.90;99.90;;;;;;4957384;28;20060;-83
2023/11/13 02:56:23;;;;;;;22.17;14.35;;;2.90;99.90;;;;;;4981123;28;20058;-83
2023/11/13 02:58:49;;;;;;;27.35;14.73;;;2.90;99.90;;;;;;4986418;28;20093;-82
2023/11/13 03:01:15;;;;;;;22.35;14.82;;;2.90;99.90;;;;;;5000555;28;20389;-81
2023/11/13 03:03:42;;;;;;;18.38;13.30;;;2.90;99.90;;;;;;5005666;28;20037;-81
2023/11/13 03:06:08;;;;;;;21.77;15.02;;;2.80;99.90;;;;;;4969008;28;20030;-83
2023/11/13 03:08:33;;;;;;;20.77;13.50;;;2.80;99.90;;;;;;4981211;28;20163;-83
2023/11/13 03:10:59;;;;;;;21.33;13.57;;;2.80;99.90;;;;;;4968875;28;20028;-83
2023/11/13 03:13:24;;;;;;;22.02;14.32;;;2.80;99.90;;;;;;4995894;28;20041;-84
2023/11/13 03:15:50;;;;;;;19.02;13.27;;;2.70;99.90;;;;;;4976731;28;20090;-81
2023/11/13 03:18:17;;;;;;;20.98;13.20;;;2.70;99.90;;;;;;4967744;28;20033;-85
2023/11/13 03:20:46;;;;;;;22.65;14.45;;;2.70;99.90;;;;;;4965960;28;20046;-84
2023/11/13 03:23:12;;;;;;;21.30;13.55;;;2.70;99.90;;;;;;4975482;28;20038;-81
2023/11/13 03:25:38;;;;;;;20.42;13.93;;;2.70;99.90;;;;;;4992095;28;20034;-80
2023/11/13 03:28:13;;;;;;;19.77;14.38;;;2.60;99.90;;;;;;5004280;28;20017;-85
2023/11/13 03:30:39;;;;;;;20.27;12.68;;;2.60;99.90;;;;;;4993347;28;20068;-84
2023/11/13 03:33:05;;;;;;;18.63;13.07;;;2.60;99.90;;;;;;4996914;28;20077;-82
2023/11/13 03:35:31;;;;;;;19.48;13.40;;;2.60;99.90;;;;;;4977732;28;20040;-84
2023/11/13 03:37:56;;;;;;;21.92;12.50;;;2.60;99.90;;;;;;5000157;28;20030;-83
2023/11/13 03:40:24;;;;;;;24.23;15.35;;;2.60;99.90;;;;;;4979140;28;20419;-82
2023/11/13 03:42:49;;;;;;;18.58;12.93;;;2.60;99.90;;;;;;4956567;28;20113;-82
2023/11/13 03:45:15;;;;;;;24.90;13.95;;;2.50;99.90;;;;;;4970457;28;20117;-83
2023/11/13 03:47:40;;;;;;;21.33;14.68;;;2.50;99.90;;;;;;4953338;28;20034;-84
2023/11/13 03:50:06;;;;;;;19.52;13.32;;;2.50;99.90;;;;;;5002358;28;20030;-83
2023/11/13 03:52:32;;;;;;;21.95;12.40;;;2.50;99.90;;;;;;4998755;28;20029;-83
2023/11/13 03:54:58;;;;;;;22.65;14.60;;;2.40;99.90;;;;;;4947592;28;20026;-82
2023/11/13 03:57:24;;;;;;;20.38;12.43;;;2.40;99.90;;;;;;4976579;28;20030;-82
2023/11/13 03:59:49;;;;;;;20.70;13.60;;;2.40;99.90;;;;;;4948758;28;20104;-85
2023/11/13 04:02:15;;;;;;;21.20;13.98;;;2.40;99.90;;;;;;4968138;28;20022;-81
2023/11/13 04:04:40;;;;;;;24.70;13.98;;;2.40;99.90;;;;;;4981692;28;21941;-83
2023/11/13 04:07:06;;;;;;;21.90;13.15;;;2.40;99.90;;;;;;4982626;28;20781;-83
2023/11/13 04:09:32;;;;;;;20.00;14.10;;;2.40;99.90;;;;;;4974183;28;20105;-83
2023/11/13 04:11:58;;;;;;;23.58;14.00;;;2.40;99.90;;;;;;4938567;28;20148;-84
2023/11/13 04:14:24;;;;;;;21.98;13.13;;;2.30;99.90;;;;;;4982105;28;20029;-82
2023/11/13 04:16:49;;;;;;;20.92;13.43;;;2.30;99.90;;;;;;4996160;28;20014;-83
2023/11/13 04:19:15;;;;;;;21.30;14.57;;;2.30;99.90;;;;;;4939577;28;20459;-83
2023/11/13 04:21:40;;;;;;;20.45;13.15;;;2.30;99.90;;;;;;4963182;28;20296;-83
2023/11/13 04:24:06;;;;;;;24.27;14.82;;;2.30;99.90;;;;;;4932182;28;20885;-83
2023/11/13 04:26:32;;;;;;;26.00;14.85;;;2.30;99.90;;;;;;4961020;28;20119;-82
2023/11/13 04:28:57;;;;;;;21.23;13.70;;;2.30;99.90;;;;;;4995281;28;20037;-82
2023/11/13 04:31:23;;;;;;;22.88;13.23;;;2.20;99.90;;;;;;4941672;28;20046;-82
2023/11/13 04:33:49;;;;;;;24.42;15.25;;;2.20;99.90;;;;;;4965139;28;20037;-82
2023/11/13 04:36:15;;;;;;;21.90;13.68;;;2.20;99.90;;;;;;4948216;28;20057;-84
2023/11/13 04:38:41;;;;;;;22.58;13.65;;;2.20;99.90;;;;;;4969357;28;20079;-84
2023/11/13 04:41:09;;;;;;;25.85;15.65;;;2.20;99.90;;;;;;4965784;28;20026;-83
2023/11/13 04:43:36;;;;;;;24.65;15.68;;;2.20;99.90;;;;;;4962266;28;20029;-82
2023/11/13 04:46:02;;;;;;;22.25;15.10;;;2.20;99.90;;;;;;4941508;28;21006;-83
2023/11/13 04:48:28;;;;;;;22.73;14.68;;;2.20;99.90;;;;;;4958337;28;20030;-84
2023/11/13 04:50:53;;;;;;;23.02;16.17;;;2.20;99.90;;;;;;4961445;28;20029;-83
2023/11/13 04:53:20;;;;;;;23.45;15.15;;;2.20;99.90;;;;;;4936581;28;20033;-81
2023/11/13 04:55:45;;;;;;;20.08;14.35;;;2.20;99.90;;;;;;4968245;28;20021;-83
2023/11/13 04:58:11;;;;;;;20.50;13.98;;;2.20;99.90;;;;;;4956607;28;20079;-83
2023/11/13 05:00:36;;;;;;;22.08;14.02;;;2.20;99.90;;;;;;4977255;28;20083;-84
2023/11/13 05:03:02;;;;;;;22.15;14.20;;;2.20;99.90;;;;;;4939695;28;20045;-82
2023/11/13 05:05:29;;;;;;;23.92;15.30;;;2.20;99.90;;;;;;4964817;28;20642;-83
2023/11/13 05:07:55;;;;;;;20.20;14.07;;;2.20;99.90;;;;;;4972585;28;20022;-85
2023/11/13 05:10:22;;;;;;;22.10;13.75;;;2.20;99.90;;;;;;4954900;28;20471;-83
2023/11/13 05:12:48;;;;;;;24.02;15.00;;;2.20;99.90;;;;;;4946363;28;20046;-82
2023/11/13 05:15:14;;;;;;;21.45;14.02;;;2.20;99.90;;;;;;5026047;28;20037;-83
2023/11/13 05:17:39;;;;;;;23.52;14.75;;;2.20;99.90;;;;;;4938452;28;20034;-82
2023/11/13 05:20:06;;;;;;;18.95;12.35;;;2.20;99.90;;;;;;4972774;28;20055;-83
2023/11/13 05:22:32;;;;;;;22.70;14.13;;;2.10;99.90;;;;;;4940371;28;20037;-83
2023/11/13 05:24:58;;;;;;;22.00;13.98;;;2.10;99.90;;;;;;4934411;28;20042;-83
2023/11/13 05:27:24;;;;;;;21.70;13.13;;;2.10;99.90;;;;;;4963454;28;20513;-83
2023/11/13 05:29:49;;;;;;;21.75;13.93;;;2.10;99.90;;;;;;4963230;28;20037;-82
2023/11/13 05:32:15;;;;;;;19.95;13.52;;;2.10;99.90;;;;;;4953000;28;20034;-82
2023/11/13 05:34:40;;;;;;;18.85;12.95;;;2.00;99.90;;;;;;4949686;28;20124;-82
2023/11/13 05:37:06;;;;;;;23.65;13.88;;;2.00;99.90;;;;;;4941567;28;21503;-82
2023/11/13 05:39:32;;;;;;;23.15;13.80;;;2.00;99.90;;;;;;4964556;28;20144;-84
2023/11/13 05:41:57;;;;;;;21.55;13.80;;;2.00;99.90;;;;;;4994678;28;20036;-83
2023/11/13 05:44:23;;;;;;;20.67;13.52;;;2.00;99.90;;;;;;4963113;28;20041;-82
2023/11/13 05:46:48;;;;;;;23.90;15.82;;;2.00;99.90;;;;;;4988823;28;20053;-85
2023/11/13 05:49:14;;;;;;;22.75;14.07;;;2.00;99.90;;;;;;4954138;28;20076;-83
2023/11/13 05:51:40;;;;;;;27.08;15.57;;;2.00;99.90;;;;;;4961680;28;20068;-83
2023/11/13 05:54:06;;;;;;;20.02;14.02;;;2.00;99.90;;;;;;4949000;28;20030;-84
2023/11/13 05:56:31;;;;;;;24.70;15.23;;;2.00;99.90;;;;;;4957973;28;20495;-81
2023/11/13 05:58:57;;;;;;;22.75;14.45;;;2.00;99.90;;;;;;4998315;28;20034;-84
2023/11/13 06:01:23;;;;;;;23.35;14.95;;;2.00;99.90;;;;;;4935187;28;20030;-83
2023/11/13 06:03:48;;;;;;;21.63;14.20;;;2.00;99.90;;;;;;4967757;28;20101;-82
2023/11/13 06:06:14;;;;;;;19.67;13.43;;;2.00;99.90;;;;;;4970345;28;21006;-83
2023/11/13 06:08:45;;;;;;;22.92;15.15;;;2.00;99.90;;;;;;4976441;28;21718;-82
2023/11/13 06:11:26;;;;;;;22.23;14.43;;;2.00;99.90;;;;;;4962028;28;20018;-82
2023/11/13 06:17:06;;;;;;;19.90;13.57;;;2.00;99.90;;;;;;4994475;28;20093;-83
2023/11/13 06:19:32;;;;;;;23.15;15.05;;;2.00;99.90;;;;;;4954782;28;20098;-84
2023/11/13 06:21:58;;;;;;;21.52;14.38;;;1.90;99.90;;;;;;4959273;28;20029;-85
2023/11/13 06:24:24;;;;;;;26.98;16.30;;;1.90;99.90;;;;;;4974837;28;20034;-84
2023/11/13 06:26:49;;;;;;;24.23;15.48;;;1.90;99.90;;;;;;4973042;28;20021;-84
2023/11/13 06:29:15;;;;;;;21.48;15.00;;;1.90;99.90;;;;;;5006848;28;20030;-83
2023/11/13 06:31:41;;;;;;;29.42;16.13;;;1.90;99.90;;;;;;4950346;28;20025;-82
2023/11/13 06:34:07;;;;;;;21.67;15.13;;;1.90;99.90;;;;;;4946090;28;21594;-83
2023/11/13 06:36:33;;;;;;;25.58;16.00;;;1.90;99.90;;;;;;4998881;28;20064;-83
2023/11/13 06:38:59;;;;;;;27.70;15.15;;;2.00;99.90;;;;;;4946467;28;20108;-84
2023/11/13 06:41:25;;;;;;;21.45;15.15;;;1.90;99.90;;;;;;4986197;28;20108;-82
2023/11/13 06:43:52;;;;;;;19.65;13.20;;;1.90;99.90;;;;;;4976421;28;20065;-84
2023/11/13 06:46:17;;;;;;;25.27;15.35;;;1.90;99.90;;;;;;4945152;28;20041;-83
2023/11/13 06:48:48;;;;;;;20.60;13.80;;;1.90;99.90;;;;;;4964039;28;20030;-82
2023/11/13 06:51:17;;;;;;;22.70;15.55;;;1.90;99.90;;;;;;4972513;28;20160;-83
2023/11/13 06:53:42;;;;;;;24.83;16.38;;;1.90;99.90;;;;;;4952842;28;20362;-84
2023/11/13 06:56:09;;;;;;;23.38;16.17;;;1.90;99.90;;;;;;4974560;28;20022;-83
2023/11/13 06:58:36;;;;;;;17.95;13.07;;;1.90;99.90;;;;;;4949745;28;20044;-84
2023/11/13 07:01:02;;;;;;;21.33;13.93;;;1.90;99.90;;;;;;4961504;28;21629;-83
2023/11/13 07:03:28;;;;;;;19.83;14.50;;;1.90;99.90;;;;;;4969390;28;20093;-83
2023/11/13 07:05:54;;;;;;;21.45;14.05;;;1.90;99.90;;;;;;4941509;28;20186;-83
2023/11/13 07:08:20;;;;;;;20.05;13.18;;;1.80;99.90;;;;;;4976036;28;20028;-81
2023/11/13 07:10:45;;;;;;;25.48;15.90;;;1.90;99.90;;;;;;4966664;28;20038;-83
2023/11/13 07:13:11;;;;;;;24.45;15.35;;;1.90;99.90;;;;;;4946522;28;20021;-84
2023/11/13 07:15:40;;;;;;;17.75;12.65;;;1.90;99.90;;;;;;4972767;28;20029;-83
2023/11/13 07:18:07;;;;;;;22.92;14.10;;;1.90;99.90;;;;;;4951485;28;20018;-83
2023/11/13 07:20:34;;;;;;;20.63;14.05;;;1.90;99.90;;;;;;4937578;28;20711;-83
2023/11/13 07:23:00;;;;;;;20.02;12.68;;;1.90;99.90;;;;;;4994266;28;20064;-83
2023/11/13 07:25:27;;;;;;;20.08;13.60;;;1.90;99.90;;;;;;4950634;28;20076;-83
2023/11/13 07:27:52;;;;;;;20.95;12.18;;;1.90;99.90;;;;;;4995831;28;20038;-83
2023/11/13 07:30:18;;;;;;;16.75;12.32;;;1.90;99.90;;;;;;5013025;28;20026;-84
2023/11/13 07:32:44;;;;;;;17.77;12.60;;;2.00;99.90;;;;;;4945657;28;20127;-83
2023/11/13 07:35:10;;;;;;;20.63;12.00;;;2.00;99.90;;;;;;4987975;28;20010;-84
2023/11/13 07:37:37;;;;;;;22.05;13.60;;;2.00;99.90;;;;;;4934632;28;20017;-83
2023/11/13 07:40:03;;;;;;;32.53;19.50;;;2.00;99.90;;;;;;4942317;28;20033;-83
2023/11/13 07:42:29;;;;;;;30.52;19.13;;;2.10;99.90;;;;;;4965791;28;21594;-83
2023/11/13 07:44:55;;;;;;;25.55;15.50;;;2.10;99.90;;;;;;4987954;28;20248;-83
2023/11/13 07:47:26;;;;;;;16.90;12.45;;;2.10;99.90;;;;;;4964428;28;20065;-82
2023/11/13 07:49:56;;;;;;;18.05;11.88;;;2.10;99.90;;;;;;4987720;28;20080;-83
2023/11/13 07:52:22;;;;;;;18.30;12.55;;;2.10;99.90;;;;;;4955950;28;20156;-83
2023/11/13 07:54:48;;;;;;;17.55;12.00;;;2.20;99.90;;;;;;4958118;28;20444;-83
2023/11/13 07:57:14;;;;;;;19.60;13.50;;;2.20;99.90;;;;;;4952231;28;20110;-82
2023/11/13 07:59:41;;;;;;;18.38;12.18;;;2.20;99.90;;;;;;4984865;28;20069;-85
2023/11/13 08:02:09;;;;;;;17.45;11.18;;;2.20;99.90;;;;;;4968154;28;20056;-82
2023/11/13 08:04:35;;;;;;;17.50;10.45;;;2.30;99.90;;;;;;4955728;28;20425;-84
2023/11/13 08:07:01;;;;;;;15.65;10.85;;;2.30;99.90;;;;;;4967888;28;20018;-83
2023/11/13 08:09:27;;;;;;;18.13;11.07;;;2.30;99.90;;;;;;4961218;28;20076;-83
2023/11/13 08:11:52;;;;;;;17.52;11.25;;;2.40;99.90;;;;;;4979844;28;20093;-85
2023/11/13 08:14:18;;;;;;;15.15;10.43;;;2.40;99.90;;;;;;4971897;28;20022;-83
2023/11/13 08:16:43;;;;;;;17.20;11.60;;;2.40;99.90;;;;;;4989220;28;20087;-82
2023/11/13 08:19:09;;;;;;;17.15;10.15;;;2.50;99.90;;;;;;4957079;28;20508;-83
2023/11/13 08:21:35;;;;;;;15.30;10.23;;;2.50;99.90;;;;;;4943667;28;20042;-84
2023/11/13 08:24:01;;;;;;;13.38;10.02;;;2.60;99.90;;;;;;5012455;28;20034;-84
2023/11/13 08:26:32;;;;;;;15.40;10.48;;;2.70;99.90;;;;;;4951064;28;20042;-81
2023/11/13 08:28:58;;;;;;;14.93;10.48;;;2.70;99.90;;;;;;4965262;28;20525;-83
2023/11/13 08:31:26;;;;;;;15.70;10.50;;;2.80;99.90;;;;;;5012464;28;20089;-82
2023/11/13 08:33:52;;;;;;;18.70;10.30;;;2.80;99.90;;;;;;4962545;28;20022;-83
2023/11/13 08:36:27;;;;;;;13.32;10.60;;;2.90;99.90;;;;;;4909641;28;20187;-83
2023/11/13 08:38:54;;;;;;;13.68;9.38;;;2.90;99.90;;;;;;4989589;28;20039;-83
2023/11/13 08:41:19;;;;;;;14.60;10.07;;;3.00;99.90;;;;;;4922295;28;20031;-82
2023/11/13 08:43:45;;;;;;;17.17;10.45;;;3.00;99.90;;;;;;4939472;28;20080;-82
2023/11/13 08:46:12;;;;;;;14.73;10.27;;;3.00;99.90;;;;;;4952377;28;20025;-84
2023/11/13 08:48:37;;;;;;;15.00;9.10;;;3.00;99.90;;;;;;4906045;28;20050;-83
2023/11/13 08:51:05;;;;;;;16.35;9.85;;;3.10;99.90;;;;;;4960045;28;20069;-83
2023/11/13 08:53:31;;;;;;;16.30;11.23;;;3.20;99.90;;;;;;4913477;28;20029;-82
2023/11/13 08:55:59;;;;;;;15.63;10.15;;;3.20;99.90;;;;;;4937174;28;20028;-83
2023/11/13 08:58:26;;;;;;;14.77;10.02;;;3.30;99.90;;;;;;4950956;28;20022;-84
2023/11/13 09:00:53;;;;;;;17.90;9.60;;;3.30;99.90;;;;;;4955807;28;20528;-83
2023/11/13 09:03:20;;;;;;;15.90;10.13;;;3.40;99.90;;;;;;4915067;28;20120;-83
2023/11/13 09:05:46;;;;;;;17.38;9.68;;;3.40;99.90;;;;;;4983447;28;20038;-82
2023/11/13 09:08:12;;;;;;;17.10;10.35;;;3.50;99.90;;;;;;4962747;28;20022;-82
2023/11/13 09:10:39;;;;;;;10.55;8.77;;;3.50;99.90;;;;;;4926153;28;20029;-82
2023/11/13 09:13:05;;;;;;;14.05;9.43;;;3.60;99.90;;;;;;4843717;28;20570;-83
2023/11/13 09:15:32;;;;;;;13.95;9.38;;;3.60;99.90;;;;;;4858994;28;21387;-82
2023/11/13 09:18:01;;;;;;;14.60;9.38;;;3.60;99.90;;;;;;4951152;28;20545;-82
2023/11/13 09:20:29;;;;;;;12.05;9.02;;;3.70;99.90;;;;;;4897061;28;20052;-83
2023/11/13 09:22:54;;;;;;;15.27;8.63;;;3.80;99.90;;;;;;4961706;28;20480;-83
2023/11/13 09:25:22;;;;;;;11.95;8.43;;;3.80;99.90;;;;;;4929344;28;20442;-82
2023/11/13 09:27:50;;;;;;;12.73;7.93;;;3.80;99.90;;;;;;4883807;28;20030;-83
2023/11/13 09:30:20;;;;;;;13.60;8.88;;;3.80;99.90;;;;;;4921278;28;20096;-83
2023/11/13 09:32:51;;;;;;;14.15;8.73;;;3.80;99.90;;;;;;4950572;28;20052;-83
2023/11/13 09:35:19;;;;;;;11.70;7.38;;;3.90;99.90;;;;;;4890759;28;20021;-83
2023/11/13 09:37:47;;;;;;;12.75;8.02;;;3.90;99.90;;;;;;4905450;28;20041;-83
2023/11/13 09:40:15;;;;;;;11.50;7.85;;;3.90;99.90;;;;;;4892431;28;20030;-83
2023/11/13 09:42:51;;;;;;;12.30;8.02;;;4.00;99.90;;;;;;4871074;28;20048;-81
2023/11/13 09:45:19;;;;;;;15.27;8.70;;;4.00;99.90;;;;;;4851791;28;20080;-82
2023/11/13 09:47:45;;;;;;;10.75;7.70;;;4.10;99.90;;;;;;4933046;28;20029;-83
2023/11/13 09:50:15;;;;;;;10.95;7.57;;;4.20;99.90;;;;;;4898215;28;20053;-82
2023/11/13 09:52:52;;;;;;;14.43;7.47;;;4.20;99.90;;;;;;4926491;28;20021;-83
2023/11/13 09:55:20;;;;;;;8.48;6.95;;;4.30;99.90;;;;;;4936839;28;20684;-82
2023/11/13 09:57:52;;;;;;;10.93;7.32;;;4.30;99.90;;;;;;4916863;28;20018;-81
2023/11/13 10:00:19;;;;;;;10.20;6.97;;;4.30;99.90;;;;;;4906471;28;20026;-80
2023/11/13 10:02:46;;;;;;;9.60;7.07;;;4.30;99.90;;;;;;5002191;28;20133;-81
2023/11/13 10:05:17;;;;;;;9.02;7.25;;;4.40;99.90;;;;;;4889790;28;20072;-83
2023/11/13 10:07:48;;;;;;;10.25;6.55;;;4.40;99.90;;;;;;4922445;28;20300;-82
2023/11/13 10:10:19;;;;;;;8.80;6.30;;;4.40;99.90;;;;;;4906647;28;20080;-79
2023/11/13 10:12:45;;;;;;;10.27;6.72;;;4.40;99.90;;;;;;4889407;28;20014;-81
2023/11/13 10:15:14;;;;;;;10.15;6.75;;;4.40;99.90;;;;;;4921471;28;20026;-80
2023/11/13 10:17:46;;;;;;;8.32;5.95;;;4.50;99.90;;;;;;4948526;28;20026;-80
2023/11/13 10:20:17;;;;;;;9.10;6.57;;;4.60;99.90;;;;;;4893182;28;20033;-82
2023/11/13 10:23:06;;;;;;;10.25;5.35;;;4.60;99.90;;;;;;4892917;28;20034;-81
2023/11/13 10:25:56;;;;;;;8.18;5.85;;;4.70;99.90;;;;;;5012791;28;20587;-81
2023/11/13 10:28:42;;;;;;;9.02;5.07;;;4.80;99.90;;;;;;4972634;28;20026;-79
2023/11/13 10:31:12;;;;;;;7.72;6.00;;;4.90;99.90;;;;;;4871700;28;20102;-81
2023/11/13 10:33:39;;;;;;;8.63;5.47;;;5.00;99.90;;;;;;4916442;28;20034;-81
2023/11/13 10:36:17;;;;;;;9.60;5.90;;;5.00;99.90;;;;;;4951352;28;20782;-81
2023/11/13 10:38:49;;;;;;;9.88;5.70;;;5.10;99.90;;;;;;4962871;28;20021;-80
2023/11/13 10:41:21;;;;;;;10.15;5.82;;;5.20;99.90;;;;;;4897408;28;20414;-80
2023/11/13 10:43:46;;;;;;;5.15;4.13;;;5.30;99.90;;;;;;4954849;28;20022;-79
2023/11/13 10:46:27;;;;;;;8.07;5.30;;;5.30;99.90;;;;;;4964856;28;20029;-79
2023/11/13 10:48:56;;;;;;;7.75;5.05;;;5.40;99.90;;;;;;4933058;28;20022;-80
2023/11/13 10:51:25;;;;;;;9.27;5.53;;;5.40;99.90;;;;;;4930684;28;20026;-79
2023/11/13 10:53:52;;;;;;;9.77;5.13;;;5.40;99.90;;;;;;4964673;28;20025;-80
2023/11/13 10:56:17;;;;;;;8.48;5.38;;;5.40;99.90;;;;;;4870558;28;20093;-80
2023/11/13 10:58:43;;;;;;;8.75;6.07;;;5.40;99.90;;;;;;4901740;28;20184;-79
2023/11/13 11:01:12;;;;;;;7.95;5.00;;;5.40;99.90;;;;;;4896479;28;20029;-79
2023/11/13 11:03:49;;;;;;;8.77;4.80;;;5.40;99.90;;;;;;4879179;28;21530;-80
2023/11/13 11:06:22;;;;;;;5.93;4.97;;;5.50;99.90;;;;;;4914586;28;20033;-81
2023/11/13 11:08:50;;;;;;;9.57;6.20;;;5.50;99.90;;;;;;4945701;28;20029;-80
2023/11/13 11:11:21;;;;;;;7.55;5.25;;;5.50;99.90;;;;;;4858013;28;20033;-80
2023/11/13 11:14:00;;;;;;;11.88;5.38;;;5.50;99.90;;;;;;4890717;28;20030;-78
2023/11/13 11:16:46;;;;;;;6.90;5.18;;;5.60;99.90;;;;;;4954545;28;20029;-80
2023/11/13 11:19:31;;;;;;;7.90;5.20;;;5.60;99.90;;;;;;4906778;28;20180;-80
2023/11/13 11:22:01;;;;;;;8.20;5.47;;;5.60;99.90;;;;;;4908270;28;20562;-80
2023/11/13 11:24:42;;;;;;;8.98;5.60;;;5.70;99.90;;;;;;4956263;28;20707;-80
2023/11/13 11:27:07;;;;;;;10.57;5.22;;;5.70;99.90;;;;;;4945746;28;20041;-80
2023/11/13 11:29:34;;;;;;;6.13;5.00;;;5.70;99.90;;;;;;4893548;28;20390;-80
2023/11/13 11:32:20;;;;;;;6.93;5.28;;;5.70;99.90;;;;;;4869169;28;20449;-79
2023/11/13 11:35:01;;;;;;;9.55;5.60;;;5.80;99.90;;;;;;4909027;28;20089;-79
2023/11/13 11:37:27;;;;;;;5.93;4.80;;;5.80;99.90;;;;;;5001772;28;20065;-79
2023/11/13 11:39:53;;;;;;;8.05;5.03;;;5.80;99.90;;;;;;4936293;28;20025;-80
2023/11/13 11:42:23;;;;;;;7.82;5.15;;;5.80;99.90;;;;;;4893851;28;20080;-79
2023/11/13 11:44:56;;;;;;;7.05;4.75;;;5.90;99.90;;;;;;4950343;28;20401;-81
2023/11/13 11:47:25;;;;;;;8.60;5.10;;;5.90;99.90;;;;;;4919907;28;20071;-81
2023/11/13 11:49:59;;;;;;;7.15;4.32;;;5.90;99.90;;;;;;4977649;28;20030;-80
2023/11/13 11:52:54;;;;;;;6.30;4.43;;;6.00;99.90;;;;;;4967197;28;20601;-81
2023/11/13 11:55:22;;;;;;;6.53;4.35;;;5.90;99.90;;;;;;4939946;28;20048;-81
2023/11/13 11:57:48;;;;;;;8.43;4.68;;;6.00;99.90;;;;;;4896654;28;20383;-78
2023/11/13 12:00:22;;;;;;;8.40;4.10;;;6.00;99.90;;;;;;4953746;28;20040;-80
2023/11/13 12:02:51;;;;;;;7.03;4.18;;;6.00;99.90;;;;;;4955978;28;20026;-80
2023/11/13 12:05:16;;;;;;;7.20;4.35;;;6.10;99.90;;;;;;4952697;28;20034;-80
2023/11/13 12:07:42;;;;;;;6.65;3.90;;;6.10;99.90;;;;;;4949644;28;20036;-80
2023/11/13 12:10:09;;;;;;;5.55;4.13;;;6.10;99.90;;;;;;4904132;28;20037;-81
2023/11/13 12:12:41;;;;;;;5.45;4.00;;;6.20;99.90;;;;;;4957000;28;20087;-81
2023/11/13 12:15:08;;;;;;;5.03;3.70;;;6.20;99.90;;;;;;4933861;28;20026;-80
2023/11/13 12:17:40;;;;;;;9.32;3.72;;;6.20;99.90;;;;;;4893843;28;20486;-81
2023/11/13 12:20:08;;;;;;;4.82;4.10;;;6.30;99.90;;;;;;4930915;28;21434;-83
2023/11/13 12:22:34;;;;;;;5.20;3.63;;;6.30;99.90;;;;;;4948635;28;20040;-81
2023/11/13 12:25:03;;;;;;;9.35;4.25;;;6.30;99.90;;;;;;4945713;28;20449;-81
2023/11/13 12:27:34;;;;;;;4.93;3.72;;;6.40;99.90;;;;;;4909370;28;20449;-81
2023/11/13 12:30:13;;;;;;;7.28;4.30;;;6.40;99.90;;;;;;4937276;28;20030;-80
2023/11/13 12:32:39;;;;;;;5.90;3.78;;;6.50;99.90;;;;;;4898597;28;20026;-81
2023/11/13 12:35:05;;;;;;;7.18;3.65;;;6.50;99.90;;;;;;4877457;28;21650;-80
2023/11/13 12:37:30;;;;;;;5.45;3.45;;;6.50;99.90;;;;;;4998567;28;20120;-82
2023/11/13 12:40:00;;;;;;;5.60;3.72;;;6.50;99.90;;;;;;4894961;28;21194;-81
2023/11/13 12:42:27;;;;;;;4.78;2.92;;;6.60;99.90;;;;;;4918630;28;20083;-81
2023/11/13 12:44:54;;;;;;;4.93;2.85;;;6.60;99.90;;;;;;4987492;28;20034;-79